sensor_id;sensor_type;location;lat;lon;timestamp;temperature;humidity
59208;DHT22;44977;53.132;6.408;2023-09-18T00:00:28;16.80;99.90
59208;DHT22;44977;53.132;6.408;2023-09-18T00:05:31;16.80;99.90
59208;DHT22;44977;53.132;6.408;2023-09-18T00:10:31;16.80;99.90
59208;DHT22;44977;53.132;6.408;2023-09-18T00:15:32;16.90;99.90
59208;DHT22;44977;53.132;6.408;2023-09-18T00:20:33;16.90;99.90
59208;DHT22;44977;53.132;6.408;2023-09-18T00:25:34;16.90;99.90
59208;DHT22;44977;53.132;6.408;2023-09-18T00:30:34;16.90;99.90
59208;DHT22;44977;53.132;6.408;2023-09-18T00:35:36;17.00;99.90
59208;DHT22;44977;53.132;6.408;2023-09-18T00:40:37;17.00;99.90
59208;DHT22;44977;53.132;6.408;2023-09-18T00:45:40;17.00;99.90
59208;DHT22;44977;53.132;6.408;2023-09-18T00:50:45;17.00;99.90
59208;DHT22;44977;53.132;6.408;2023-09-18T00:55:47;17.00;99.90
59208;DHT22;44977;53.132;6.408;2023-09-18T01:00:48;17.10;99.90
59208;DHT22;44977;53.132;6.408;2023-09-18T01:05:51;17.10;99.90
59208;DHT22;44977;53.132;6.408;2023-09-18T01:11:23;17.10;99.90
59208;DHT22;44977;53.132;6.408;2023-09-18T01:16:44;17.10;99.90
59208;DHT22;44977;53.132;6.408;2023-09-18T01:21:45;17.10;99.90
59208;DHT22;44977;53.132;6.408;2023-09-18T01:26:46;17.10;99.90
59208;DHT22;44977;53.132;6.408;2023-09-18T01:31:47;17.20;99.90
59208;DHT22;44977;53.132;6.408;2023-09-18T01:36:49;17.20;99.90
59208;DHT22;44977;53.132;6.408;2023-09-18T01:41:51;17.20;99.90
59208;DHT22;44977;53.132;6.408;2023-09-18T01:46:52;17.20;99.90
59208;DHT22;44977;53.132;6.408;2023-09-18T01:51:56;17.20;99.90
59208;DHT22;44977;53.132;6.408;2023-09-18T01:56:57;17.20;99.90
59208;DHT22;44977;53.132;6.408;2023-09-18T02:01:58;17.20;99.90
59208;DHT22;44977;53.132;6.408;2023-09-18T02:06:59;17.30;99.90
59208;DHT22;44977;53.132;6.408;2023-09-18T02:12:00;17.20;99.90
59208;DHT22;44977;53.132;6.408;2023-09-18T02:17:01;17.20;99.90
59208;DHT22;44977;53.132;6.408;2023-09-18T02:22:02;17.30;99.90
59208;DHT22;44977;53.132;6.408;2023-09-18T02:27:06;17.30;99.90
59208;DHT22;44977;53.132;6.408;2023-09-18T02:32:06;17.30;99.90
59208;DHT22;44977;53.132;6.408;2023-09-18T02:37:07;17.30;99.90
59208;DHT22;44977;53.132;6.408;2023-09-18T02:42:08;17.30;99.90
59208;DHT22;44977;53.132;6.408;2023-09-18T02:47:09;17.30;99.90
59208;DHT22;44977;53.132;6.408;2023-09-18T02:52:09;17.30;99.90
59208;DHT22;44977;53.132;6.408;2023-09-18T02:57:10;17.30;99.90
59208;DHT22;44977;53.132;6.408;2023-09-18T03:02:11;17.30;99.90
59208;DHT22;44977;53.132;6.408;2023-09-18T03:07:14;17.40;99.90
59208;DHT22;44977;53.132;6.408;2023-09-18T03:12:16;17.40;99.90
59208;DHT22;44977;53.132;6.408;2023-09-18T03:17:17;17.40;99.90
59208;DHT22;44977;53.132;6.408;2023-09-18T03:22:17;17.40;99.90
59208;DHT22;44977;53.132;6.408;2023-09-18T03:27:18;17.40;99.90
59208;DHT22;44977;53.132;6.408;2023-09-18T03:32:19;17.40;99.90
59208;DHT22;44977;53.132;6.408;2023-09-18T03:37:20;17.40;99.90
59208;DHT22;44977;53.132;6.408;2023-09-18T03:42:20;17.40;99.90
59208;DHT22;44977;53.132;6.408;2023-09-18T03:47:21;17.40;99.90
59208;DHT22;44977;53.132;6.408;2023-09-18T03:52:22;17.40;99.90
59208;DHT22;44977;53.132;6.408;2023-09-18T03:57:23;17.40;99.90
59208;DHT22;44977;53.132;6.408;2023-09-18T04:02:25;17.40;99.90
59208;DHT22;44977;53.132;6.408;2023-09-18T04:07:26;17.40;99.90
59208;DHT22;44977;53.132;6.408;2023-09-18T04:12:27;17.40;99.90
59208;DHT22;44977;53.132;6.408;2023-09-18T04:17:27;17.40;99.90
59208;DHT22;44977;53.132;6.408;2023-09-18T04:22:28;17.40;99.90
59208;DHT22;44977;53.132;6.408;2023-09-18T04:27:29;17.40;99.90
59208;DHT22;44977;53.132;6.408;2023-09-18T04:32:29;17.40;99.90
59208;DHT22;44977;53.132;6.408;2023-09-18T04:37:30;17.40;99.90
59208;DHT22;44977;53.132;6.408;2023-09-18T04:42:31;17.50;99.90
59208;DHT22;44977;53.132;6.408;2023-09-18T04:47:31;17.50;99.90
59208;DHT22;44977;53.132;6.408;2023-09-18T04:52:32;17.50;99.90
59208;DHT22;44977;53.132;6.408;2023-09-18T04:57:33;17.50;99.90
59208;DHT22;44977;53.132;6.408;2023-09-18T05:02:35;17.60;99.90
59208;DHT22;44977;53.132;6.408;2023-09-18T05:07:35;17.60;99.90
59208;DHT22;44977;53.132;6.408;2023-09-18T05:12:40;17.60;99.90
59208;DHT22;44977;53.132;6.408;2023-09-18T05:17:47;17.60;99.90
59208;DHT22;44977;53.132;6.408;2023-09-18T05:22:48;17.60;99.90
59208;DHT22;44977;53.132;6.408;2023-09-18T05:27:49;17.70;99.90
59208;DHT22;44977;53.132;6.408;2023-09-18T05:32:55;17.70;99.90
59208;DHT22;44977;53.132;6.408;2023-09-18T05:37:56;17.70;99.90
59208;DHT22;44977;53.132;6.408;2023-09-18T05:42:59;17.70;99.90
59208;DHT22;44977;53.132;6.408;2023-09-18T05:47:59;17.70;99.90
59208;DHT22;44977;53.132;6.408;2023-09-18T05:53:06;17.70;99.90
59208;DHT22;44977;53.132;6.408;2023-09-18T05:58:06;17.80;99.90
59208;DHT22;44977;53.132;6.408;2023-09-18T06:03:08;17.80;99.90
59208;DHT22;44977;53.132;6.408;2023-09-18T06:08:10;17.80;99.90
59208;DHT22;44977;53.132;6.408;2023-09-18T06:13:11;17.90;99.90
59208;DHT22;44977;53.132;6.408;2023-09-18T06:18:12;17.90;99.90
59208;DHT22;44977;53.132;6.408;2023-09-18T06:23:14;17.90;99.90
59208;DHT22;44977;53.132;6.408;2023-09-18T06:28:14;18.00;99.90
59208;DHT22;44977;53.132;6.408;2023-09-18T06:33:15;18.10;99.90
59208;DHT22;44977;53.132;6.408;2023-09-18T06:38:17;18.10;99.90
59208;DHT22;44977;53.132;6.408;2023-09-18T06:43:18;18.20;99.90
59208;DHT22;44977;53.132;6.408;2023-09-18T06:48:18;18.20;99.90
59208;DHT22;44977;53.132;6.408;2023-09-18T06:53:19;18.30;99.90
59208;DHT22;44977;53.132;6.408;2023-09-18T06:58:20;18.40;99.90
59208;DHT22;44977;53.132;6.408;2023-09-18T07:03:21;18.40;99.90
59208;DHT22;44977;53.132;6.408;2023-09-18T07:08:23;18.40;99.90
59208;DHT22;44977;53.132;6.408;2023-09-18T07:13:24;18.50;99.90
59208;DHT22;44977;53.132;6.408;2023-09-18T07:18:25;18.50;99.90
59208;DHT22;44977;53.132;6.408;2023-09-18T07:23:25;18.50;99.90
59208;DHT22;44977;53.132;6.408;2023-09-18T07:28:26;18.60;99.90
59208;DHT22;44977;53.132;6.408;2023-09-18T07:33:27;18.60;99.90
59208;DHT22;44977;53.132;6.408;2023-09-18T07:38:27;18.50;99.90
59208;DHT22;44977;53.132;6.408;2023-09-18T07:43:28;18.50;99.90
59208;DHT22;44977;53.132;6.408;2023-09-18T07:48:29;18.50;99.90
59208;DHT22;44977;53.132;6.408;2023-09-18T07:53:29;18.50;99.90
59208;DHT22;44977;53.132;6.408;2023-09-18T07:58:31;18.50;99.90
59208;DHT22;44977;53.132;6.408;2023-09-18T08:03:33;18.60;99.90
59208;DHT22;44977;53.132;6.408;2023-09-18T08:08:34;18.60;99.90
59208;DHT22;44977;53.132;6.408;2023-09-18T08:13:35;18.50;99.90
59208;DHT22;44977;53.132;6.408;2023-09-18T08:18:36;18.60;99.90
59208;DHT22;44977;53.132;6.408;2023-09-18T08:23:39;18.50;99.90
59208;DHT22;44977;53.132;6.408;2023-09-18T08:28:39;18.50;99.90
59208;DHT22;44977;53.132;6.408;2023-09-18T08:33:44;18.60;99.90
59208;DHT22;44977;53.132;6.408;2023-09-18T08:38:44;18.60;99.90
59208;DHT22;44977;53.132;6.408;2023-09-18T08:43:47;18.60;99.90
59208;DHT22;44977;53.132;6.408;2023-09-18T08:48:50;18.70;99.90
59208;DHT22;44977;53.132;6.408;2023-09-18T08:53:51;18.70;99.90
59208;DHT22;44977;53.132;6.408;2023-09-18T08:58:53;18.80;99.90
59208;DHT22;44977;53.132;6.408;2023-09-18T09:03:54;18.80;99.90
59208;DHT22;44977;53.132;6.408;2023-09-18T09:08:55;18.90;99.90
59208;DHT22;44977;53.132;6.408;2023-09-18T09:14:12;18.90;99.90
59208;DHT22;44977;53.132;6.408;2023-09-18T09:19:31;18.90;99.90
59208;DHT22;44977;53.132;6.408;2023-09-18T09:24:43;18.90;99.90
59208;DHT22;44977;53.132;6.408;2023-09-18T09:29:57;19.00;99.90
59208;DHT22;44977;53.132;6.408;2023-09-18T09:34:58;19.10;99.90
59208;DHT22;44977;53.132;6.408;2023-09-18T09:40:03;19.10;99.90
59208;DHT22;44977;53.132;6.408;2023-09-18T09:45:14;19.20;99.90
59208;DHT22;44977;53.132;6.408;2023-09-18T09:50:16;19.30;99.90
59208;DHT22;44977;53.132;6.408;2023-09-18T10:00:47;19.40;99.90
59208;DHT22;44977;53.132;6.408;2023-09-18T10:05:51;19.40;99.90
59208;DHT22;44977;53.132;6.408;2023-09-18T10:11:08;19.60;99.90
59208;DHT22;44977;53.132;6.408;2023-09-18T10:16:10;19.70;99.90
59208;DHT22;44977;53.132;6.408;2023-09-18T10:21:22;19.90;99.90
59208;DHT22;44977;53.132;6.408;2023-09-18T10:26:29;20.10;99.90
59208;DHT22;44977;53.132;6.408;2023-09-18T10:31:34;20.20;99.90
59208;DHT22;44977;53.132;6.408;2023-09-18T10:36:37;20.30;99.90
59208;DHT22;44977;53.132;6.408;2023-09-18T10:41:40;20.40;99.90
59208;DHT22;44977;53.132;6.408;2023-09-18T10:46:42;20.50;99.90
59208;DHT22;44977;53.132;6.408;2023-09-18T10:51:43;20.60;99.90
59208;DHT22;44977;53.132;6.408;2023-09-18T10:56:45;20.70;99.90
59208;DHT22;44977;53.132;6.408;2023-09-18T11:01:46;20.90;99.90
59208;DHT22;44977;53.132;6.408;2023-09-18T11:07:06;21.00;99.90
59208;DHT22;44977;53.132;6.408;2023-09-18T11:12:09;21.10;99.90
59208;DHT22;44977;53.132;6.408;2023-09-18T11:22:36;20.90;99.90
59208;DHT22;44977;53.132;6.408;2023-09-18T11:27:53;21.10;99.90
59208;DHT22;44977;53.132;6.408;2023-09-18T11:32:56;21.30;99.90
59208;DHT22;44977;53.132;6.408;2023-09-18T11:38:05;21.40;99.90
59208;DHT22;44977;53.132;6.408;2023-09-18T11:43:26;21.50;99.90
59208;DHT22;44977;53.132;6.408;2023-09-18T11:48:30;21.70;99.90
59208;DHT22;44977;53.132;6.408;2023-09-18T11:53:34;22.00;99.90
59208;DHT22;44977;53.132;6.408;2023-09-18T11:58:46;22.00;99.90
59208;DHT22;44977;53.132;6.408;2023-09-18T12:03:59;22.10;99.90
59208;DHT22;44977;53.132;6.408;2023-09-18T12:09:01;22.20;99.90
59208;DHT22;44977;53.132;6.408;2023-09-18T12:14:02;22.40;99.90
59208;DHT22;44977;53.132;6.408;2023-09-18T12:19:04;22.50;99.90
59208;DHT22;44977;53.132;6.408;2023-09-18T12:24:07;22.50;99.90
59208;DHT22;44977;53.132;6.408;2023-09-18T12:29:13;22.60;99.90
59208;DHT22;44977;53.132;6.408;2023-09-18T12:34:18;22.70;99.90
59208;DHT22;44977;53.132;6.408;2023-09-18T12:39:20;22.60;99.90
59208;DHT22;44977;53.132;6.408;2023-09-18T12:44:21;22.50;99.90
59208;DHT22;44977;53.132;6.408;2023-09-18T12:49:23;22.40;99.90
59208;DHT22;44977;53.132;6.408;2023-09-18T12:54:41;22.50;99.90
59208;DHT22;44977;53.132;6.408;2023-09-18T12:59:42;22.70;99.90
59208;DHT22;44977;53.132;6.408;2023-09-18T13:04:54;22.90;99.90
59208;DHT22;44977;53.132;6.408;2023-09-18T13:10:03;23.00;99.90
59208;DHT22;44977;53.132;6.408;2023-09-18T13:15:05;23.10;99.90
59208;DHT22;44977;53.132;6.408;2023-09-18T13:20:11;23.10;99.90
59208;DHT22;44977;53.132;6.408;2023-09-18T13:30:22;22.70;99.90
59208;DHT22;44977;53.132;6.408;2023-09-18T13:35:23;22.50;99.90
59208;DHT22;44977;53.132;6.408;2023-09-18T13:40:24;22.50;99.90
59208;DHT22;44977;53.132;6.408;2023-09-18T13:45:25;22.50;99.90
59208;DHT22;44977;53.132;6.408;2023-09-18T13:50:26;22.60;99.90
59208;DHT22;44977;53.132;6.408;2023-09-18T13:55:27;22.70;99.90
59208;DHT22;44977;53.132;6.408;2023-09-18T14:00:27;22.90;99.90
59208;DHT22;44977;53.132;6.408;2023-09-18T14:05:28;22.90;99.90
59208;DHT22;44977;53.132;6.408;2023-09-18T14:10:30;23.10;99.90
59208;DHT22;44977;53.132;6.408;2023-09-18T14:15:31;23.00;99.90
59208;DHT22;44977;53.132;6.408;2023-09-18T14:20:32;22.90;99.90
59208;DHT22;44977;53.132;6.408;2023-09-18T14:25:33;22.90;99.90
59208;DHT22;44977;53.132;6.408;2023-09-18T14:30:34;22.90;99.90
59208;DHT22;44977;53.132;6.408;2023-09-18T14:35:35;22.90;99.90
59208;DHT22;44977;53.132;6.408;2023-09-18T14:40:41;23.00;99.90
59208;DHT22;44977;53.132;6.408;2023-09-18T14:45:42;22.90;99.90
59208;DHT22;44977;53.132;6.408;2023-09-18T14:50:43;22.90;99.90
59208;DHT22;44977;53.132;6.408;2023-09-18T14:55:44;23.00;99.90
59208;DHT22;44977;53.132;6.408;2023-09-18T15:00:44;23.00;99.90
59208;DHT22;44977;53.132;6.408;2023-09-18T15:05:45;23.00;99.90
59208;DHT22;44977;53.132;6.408;2023-09-18T15:10:46;23.10;99.90
59208;DHT22;44977;53.132;6.408;2023-09-18T15:15:47;23.10;99.90
59208;DHT22;44977;53.132;6.408;2023-09-18T15:20:48;23.20;99.90
59208;DHT22;44977;53.132;6.408;2023-09-18T15:25:54;23.20;99.90
59208;DHT22;44977;53.132;6.408;2023-09-18T15:30:56;23.20;99.90
59208;DHT22;44977;53.132;6.408;2023-09-18T15:35:57;23.20;99.90
59208;DHT22;44977;53.132;6.408;2023-09-18T15:40:58;23.10;99.90
59208;DHT22;44977;53.132;6.408;2023-09-18T15:45:58;23.00;99.90
59208;DHT22;44977;53.132;6.408;2023-09-18T15:50:59;22.80;99.90
59208;DHT22;44977;53.132;6.408;2023-09-18T15:56:00;22.80;99.90
59208;DHT22;44977;53.132;6.408;2023-09-18T16:01:01;22.70;99.90
59208;DHT22;44977;53.132;6.408;2023-09-18T16:06:02;22.60;99.90
59208;DHT22;44977;53.132;6.408;2023-09-18T16:11:04;22.50;99.90
59208;DHT22;44977;53.132;6.408;2023-09-18T16:16:05;22.40;99.90
59208;DHT22;44977;53.132;6.408;2023-09-18T16:21:06;22.20;99.90
59208;DHT22;44977;53.132;6.408;2023-09-18T16:26:08;22.10;99.90
59208;DHT22;44977;53.132;6.408;2023-09-18T16:31:09;22.10;99.90
59208;DHT22;44977;53.132;6.408;2023-09-18T16:36:10;21.90;99.90
59208;DHT22;44977;53.132;6.408;2023-09-18T16:41:11;21.80;99.90
59208;DHT22;44977;53.132;6.408;2023-09-18T16:46:11;21.70;99.90
59208;DHT22;44977;53.132;6.408;2023-09-18T16:51:12;21.60;99.90
59208;DHT22;44977;53.132;6.408;2023-09-18T16:56:13;21.50;99.90
59208;DHT22;44977;53.132;6.408;2023-09-18T17:01:15;21.40;99.90
59208;DHT22;44977;53.132;6.408;2023-09-18T17:06:15;21.10;99.90
59208;DHT22;44977;53.132;6.408;2023-09-18T17:11:18;20.80;99.90
59208;DHT22;44977;53.132;6.408;2023-09-18T17:16:19;20.60;99.90
59208;DHT22;44977;53.132;6.408;2023-09-18T17:21:20;20.30;99.90
59208;DHT22;44977;53.132;6.408;2023-09-18T17:26:21;20.10;99.90
59208;DHT22;44977;53.132;6.408;2023-09-18T17:31:22;20.00;99.90
59208;DHT22;44977;53.132;6.408;2023-09-18T17:36:24;19.90;99.90
59208;DHT22;44977;53.132;6.408;2023-09-18T17:41:24;19.70;99.90
59208;DHT22;44977;53.132;6.408;2023-09-18T17:46:25;19.50;99.90
59208;DHT22;44977;53.132;6.408;2023-09-18T17:51:26;19.40;99.90
59208;DHT22;44977;53.132;6.408;2023-09-18T17:56:27;19.30;99.90
59208;DHT22;44977;53.132;6.408;2023-09-18T18:01:28;19.10;99.90
59208;DHT22;44977;53.132;6.408;2023-09-18T18:06:29;19.00;99.90
59208;DHT22;44977;53.132;6.408;2023-09-18T18:11:30;18.90;99.90
59208;DHT22;44977;53.132;6.408;2023-09-18T18:16:31;18.80;99.90
59208;DHT22;44977;53.132;6.408;2023-09-18T18:21:32;18.70;99.90
59208;DHT22;44977;53.132;6.408;2023-09-18T18:26:37;18.80;99.90
59208;DHT22;44977;53.132;6.408;2023-09-18T18:31:38;18.60;99.90
59208;DHT22;44977;53.132;6.408;2023-09-18T18:36:39;18.50;99.90
59208;DHT22;44977;53.132;6.408;2023-09-18T18:41:40;18.50;99.90
59208;DHT22;44977;53.132;6.408;2023-09-18T18:46:41;18.40;99.90
59208;DHT22;44977;53.132;6.408;2023-09-18T18:51:41;18.40;99.90
59208;DHT22;44977;53.132;6.408;2023-09-18T18:56:43;18.30;99.90
59208;DHT22;44977;53.132;6.408;2023-09-18T19:01:44;18.20;99.90
59208;DHT22;44977;53.132;6.408;2023-09-18T19:06:45;18.20;99.90
59208;DHT22;44977;53.132;6.408;2023-09-18T19:11:46;18.10;99.90
59208;DHT22;44977;53.132;6.408;2023-09-18T19:16:46;18.10;99.90
59208;DHT22;44977;53.132;6.408;2023-09-18T19:21:47;18.10;99.90
59208;DHT22;44977;53.132;6.408;2023-09-18T19:26:48;18.10;99.90
59208;DHT22;44977;53.132;6.408;2023-09-18T19:31:50;18.10;99.90
59208;DHT22;44977;53.132;6.408;2023-09-18T19:36:51;18.00;99.90
59208;DHT22;44977;53.132;6.408;2023-09-18T19:41:53;18.00;99.90
59208;DHT22;44977;53.132;6.408;2023-09-18T19:46:57;18.00;99.90
59208;DHT22;44977;53.132;6.408;2023-09-18T19:51:58;18.00;99.90
59208;DHT22;44977;53.132;6.408;2023-09-18T19:57:00;18.00;99.90
59208;DHT22;44977;53.132;6.408;2023-09-18T20:02:01;17.90;99.90
59208;DHT22;44977;53.132;6.408;2023-09-18T20:07:04;17.90;99.90
59208;DHT22;44977;53.132;6.408;2023-09-18T20:12:07;17.90;99.90
59208;DHT22;44977;53.132;6.408;2023-09-18T20:17:09;17.70;99.90
59208;DHT22;44977;53.132;6.408;2023-09-18T20:22:11;17.70;99.90
59208;DHT22;44977;53.132;6.408;2023-09-18T20:27:12;17.60;99.90
59208;DHT22;44977;53.132;6.408;2023-09-18T20:32:13;17.50;99.90
59208;DHT22;44977;53.132;6.408;2023-09-18T20:37:14;17.40;99.90
59208;DHT22;44977;53.132;6.408;2023-09-18T20:42:14;17.30;99.90
59208;DHT22;44977;53.132;6.408;2023-09-18T20:47:15;17.30;99.90
59208;DHT22;44977;53.132;6.408;2023-09-18T20:52:18;17.30;99.90
59208;DHT22;44977;53.132;6.408;2023-09-18T20:57:19;17.30;99.90
59208;DHT22;44977;53.132;6.408;2023-09-18T21:02:19;17.30;99.90
59208;DHT22;44977;53.132;6.408;2023-09-18T21:07:20;17.20;99.90
59208;DHT22;44977;53.132;6.408;2023-09-18T21:12:22;17.20;99.90
59208;DHT22;44977;53.132;6.408;2023-09-18T21:17:23;17.20;99.90
59208;DHT22;44977;53.132;6.408;2023-09-18T21:22:24;17.20;99.90
59208;DHT22;44977;53.132;6.408;2023-09-18T21:27:25;17.20;99.90
59208;DHT22;44977;53.132;6.408;2023-09-18T21:32:26;17.10;99.90
59208;DHT22;44977;53.132;6.408;2023-09-18T21:37:26;17.10;99.90
59208;DHT22;44977;53.132;6.408;2023-09-18T21:42:27;17.00;99.90
59208;DHT22;44977;53.132;6.408;2023-09-18T21:47:28;16.90;99.90
59208;DHT22;44977;53.132;6.408;2023-09-18T21:52:29;16.90;99.90
59208;DHT22;44977;53.132;6.408;2023-09-18T21:57:29;16.80;99.90
59208;DHT22;44977;53.132;6.408;2023-09-18T22:02:30;16.70;99.90
59208;DHT22;44977;53.132;6.408;2023-09-18T22:07:32;16.70;99.90
59208;DHT22;44977;53.132;6.408;2023-09-18T22:12:32;16.60;99.90
59208;DHT22;44977;53.132;6.408;2023-09-18T22:17:33;16.40;99.90
59208;DHT22;44977;53.132;6.408;2023-09-18T22:22:36;16.40;99.90
59208;DHT22;44977;53.132;6.408;2023-09-18T22:27:37;16.30;99.90
59208;DHT22;44977;53.132;6.408;2023-09-18T22:32:38;16.20;99.90
59208;DHT22;44977;53.132;6.408;2023-09-18T22:37:39;16.20;99.90
59208;DHT22;44977;53.132;6.408;2023-09-18T22:58:57;15.90;99.90
59208;DHT22;44977;53.132;6.408;2023-09-18T23:03:58;15.80;99.90
59208;DHT22;44977;53.132;6.408;2023-09-18T23:09:00;15.70;99.90
59208;DHT22;44977;53.132;6.408;2023-09-18T23:14:01;15.70;99.90
59208;DHT22;44977;53.132;6.408;2023-09-18T23:19:04;15.60;99.90
59208;DHT22;44977;53.132;6.408;2023-09-18T23:24:05;15.50;99.90
59208;DHT22;44977;53.132;6.408;2023-09-18T23:29:08;15.40;99.90
59208;DHT22;44977;53.132;6.408;2023-09-18T23:34:08;15.30;99.90
59208;DHT22;44977;53.132;6.408;2023-09-18T23:39:09;15.20;99.90
59208;DHT22;44977;53.132;6.408;2023-09-18T23:44:10;15.20;99.90
59208;DHT22;44977;53.132;6.408;2023-09-18T23:49:20;15.10;99.90
59208;DHT22;44977;53.132;6.408;2023-09-18T23:54:20;15.10;99.90
59208;DHT22;44977;53.132;6.408;2023-09-18T23:59:23;15.00;99.90
